sensor_id;sensor_type;location;lat;lon;timestamp;temperature;humidity
1277;DHT22;631;51.024;13.826;2023-03-03T00:01:21;-1.00;99.90
1277;DHT22;631;51.024;13.826;2023-03-03T00:03:49;-1.00;99.90
1277;DHT22;631;51.024;13.826;2023-03-03T00:06:15;-1.00;99.90
1277;DHT22;631;51.024;13.826;2023-03-03T00:08:41;-1.00;99.90
1277;DHT22;631;51.024;13.826;2023-03-03T00:11:07;-1.00;99.90
1277;DHT22;631;51.024;13.826;2023-03-03T00:13:54;-0.90;99.90
1277;DHT22;631;51.024;13.826;2023-03-03T00:18:55;-0.70;99.90
1277;DHT22;631;51.024;13.826;2023-03-03T00:21:46;-0.60;99.90
1277;DHT22;631;51.024;13.826;2023-03-03T00:24:43;-0.50;99.90
1277;DHT22;631;51.024;13.826;2023-03-03T00:29:55;-0.10;99.90
1277;DHT22;631;51.024;13.826;2023-03-03T00:32:42;0.00;99.90
1277;DHT22;631;51.024;13.826;2023-03-03T00:38:16;0.30;99.90
1277;DHT22;631;51.024;13.826;2023-03-03T00:40:40;0.40;99.90
1277;DHT22;631;51.024;13.826;2023-03-03T00:43:32;0.50;99.90
1277;DHT22;631;51.024;13.826;2023-03-03T00:45:58;0.50;99.90
1277;DHT22;631;51.024;13.826;2023-03-03T00:50:59;0.60;99.90
1277;DHT22;631;51.024;13.826;2023-03-03T00:53:29;0.60;99.90
1277;DHT22;631;51.024;13.826;2023-03-03T00:55:55;0.60;99.90
1277;DHT22;631;51.024;13.826;2023-03-03T00:58:22;0.60;99.90
1277;DHT22;631;51.024;13.826;2023-03-03T01:00:50;0.60;99.90
1277;DHT22;631;51.024;13.826;2023-03-03T01:03:22;0.70;99.90
1277;DHT22;631;51.024;13.826;2023-03-03T01:05:49;0.70;99.90
1277;DHT22;631;51.024;13.826;2023-03-03T01:08:15;0.70;99.90
1277;DHT22;631;51.024;13.826;2023-03-03T01:10:53;0.70;99.90
1277;DHT22;631;51.024;13.826;2023-03-03T01:13:22;0.70;99.90
1277;DHT22;631;51.024;13.826;2023-03-03T01:15:48;0.70;99.90
1277;DHT22;631;51.024;13.826;2023-03-03T01:18:14;0.70;99.90
1277;DHT22;631;51.024;13.826;2023-03-03T01:20:40;0.60;99.90
1277;DHT22;631;51.024;13.826;2023-03-03T01:23:05;0.70;99.90
1277;DHT22;631;51.024;13.826;2023-03-03T01:25:31;0.70;99.90
1277;DHT22;631;51.024;13.826;2023-03-03T01:27:57;0.70;99.90
1277;DHT22;631;51.024;13.826;2023-03-03T01:30:23;0.70;99.90
1277;DHT22;631;51.024;13.826;2023-03-03T01:32:49;0.70;99.90
1277;DHT22;631;51.024;13.826;2023-03-03T01:35:16;0.80;99.90
1277;DHT22;631;51.024;13.826;2023-03-03T01:37:41;0.70;99.90
1277;DHT22;631;51.024;13.826;2023-03-03T01:40:16;0.80;99.90
1277;DHT22;631;51.024;13.826;2023-03-03T01:42:42;0.70;99.90
1277;DHT22;631;51.024;13.826;2023-03-03T01:45:26;0.70;99.90
1277;DHT22;631;51.024;13.826;2023-03-03T01:48:09;0.70;99.90
1277;DHT22;631;51.024;13.826;2023-03-03T01:50:46;0.70;99.90
1277;DHT22;631;51.024;13.826;2023-03-03T01:53:18;0.70;99.90
1277;DHT22;631;51.024;13.826;2023-03-03T01:55:46;0.80;99.90
1277;DHT22;631;51.024;13.826;2023-03-03T01:58:17;0.80;99.90
1277;DHT22;631;51.024;13.826;2023-03-03T02:00:49;0.70;99.90
1277;DHT22;631;51.024;13.826;2023-03-03T02:03:15;0.70;99.90
1277;DHT22;631;51.024;13.826;2023-03-03T02:05:41;0.80;99.90
1277;DHT22;631;51.024;13.826;2023-03-03T02:08:09;0.80;99.90
1277;DHT22;631;51.024;13.826;2023-03-03T02:10:36;0.80;99.90
1277;DHT22;631;51.024;13.826;2023-03-03T02:13:02;0.90;99.90
1277;DHT22;631;51.024;13.826;2023-03-03T02:15:31;0.80;99.90
1277;DHT22;631;51.024;13.826;2023-03-03T02:18:00;0.90;99.90
1277;DHT22;631;51.024;13.826;2023-03-03T02:20:53;0.90;99.90
1277;DHT22;631;51.024;13.826;2023-03-03T02:23:22;0.80;99.90
1277;DHT22;631;51.024;13.826;2023-03-03T02:28:26;0.80;99.90
1277;DHT22;631;51.024;13.826;2023-03-03T02:30:56;0.80;99.90
1277;DHT22;631;51.024;13.826;2023-03-03T02:33:22;0.70;99.90
1277;DHT22;631;51.024;13.826;2023-03-03T02:35:48;0.70;99.90
1277;DHT22;631;51.024;13.826;2023-03-03T02:38:24;0.70;99.90
1277;DHT22;631;51.024;13.826;2023-03-03T02:46:20;0.80;99.90
1277;DHT22;631;51.024;13.826;2023-03-03T02:48:46;0.70;99.90
1277;DHT22;631;51.024;13.826;2023-03-03T02:51:11;0.60;99.90
1277;DHT22;631;51.024;13.826;2023-03-03T02:53:37;0.60;99.90
1277;DHT22;631;51.024;13.826;2023-03-03T02:56:03;0.60;99.90
1277;DHT22;631;51.024;13.826;2023-03-03T02:58:29;0.60;99.90
1277;DHT22;631;51.024;13.826;2023-03-03T03:00:55;0.60;99.90
1277;DHT22;631;51.024;13.826;2023-03-03T03:03:21;0.50;99.90
1277;DHT22;631;51.024;13.826;2023-03-03T03:05:47;0.50;99.90
1277;DHT22;631;51.024;13.826;2023-03-03T03:08:13;0.50;99.90
1277;DHT22;631;51.024;13.826;2023-03-03T03:10:38;0.50;99.90
1277;DHT22;631;51.024;13.826;2023-03-03T03:13:04;0.40;99.90
1277;DHT22;631;51.024;13.826;2023-03-03T03:15:29;0.40;99.90
1277;DHT22;631;51.024;13.826;2023-03-03T03:17:55;0.50;99.90
1277;DHT22;631;51.024;13.826;2023-03-03T03:20:21;0.50;99.90
1277;DHT22;631;51.024;13.826;2023-03-03T03:22:46;0.50;99.90
1277;DHT22;631;51.024;13.826;2023-03-03T03:25:12;0.50;99.90
1277;DHT22;631;51.024;13.826;2023-03-03T03:27:38;0.40;99.90
1277;DHT22;631;51.024;13.826;2023-03-03T03:30:04;0.40;99.90
1277;DHT22;631;51.024;13.826;2023-03-03T03:32:29;0.40;99.90
1277;DHT22;631;51.024;13.826;2023-03-03T03:34:55;0.50;99.90
1277;DHT22;631;51.024;13.826;2023-03-03T03:37:20;0.50;99.90
1277;DHT22;631;51.024;13.826;2023-03-03T03:39:46;0.50;99.90
1277;DHT22;631;51.024;13.826;2023-03-03T03:42:12;0.50;99.90
1277;DHT22;631;51.024;13.826;2023-03-03T03:44:37;0.50;99.90
1277;DHT22;631;51.024;13.826;2023-03-03T03:47:03;0.40;99.90
1277;DHT22;631;51.024;13.826;2023-03-03T03:49:29;0.40;99.90
1277;DHT22;631;51.024;13.826;2023-03-03T03:51:54;0.40;99.90
1277;DHT22;631;51.024;13.826;2023-03-03T03:54:20;0.50;99.90
1277;DHT22;631;51.024;13.826;2023-03-03T03:56:46;0.50;99.90
1277;DHT22;631;51.024;13.826;2023-03-03T03:59:11;0.50;99.90
1277;DHT22;631;51.024;13.826;2023-03-03T04:01:37;0.50;99.90
1277;DHT22;631;51.024;13.826;2023-03-03T04:04:02;0.50;99.90
1277;DHT22;631;51.024;13.826;2023-03-03T04:06:29;0.50;99.90
1277;DHT22;631;51.024;13.826;2023-03-03T04:08:55;0.30;99.90
1277;DHT22;631;51.024;13.826;2023-03-03T04:11:21;0.30;99.90
1277;DHT22;631;51.024;13.826;2023-03-03T04:13:47;0.40;99.90
1277;DHT22;631;51.024;13.826;2023-03-03T04:16:12;0.30;99.90
1277;DHT22;631;51.024;13.826;2023-03-03T04:18:38;0.30;99.90
1277;DHT22;631;51.024;13.826;2023-03-03T04:21:04;0.30;99.90
1277;DHT22;631;51.024;13.826;2023-03-03T04:23:30;0.20;99.90
1277;DHT22;631;51.024;13.826;2023-03-03T04:25:55;0.20;99.90
1277;DHT22;631;51.024;13.826;2023-03-03T04:28:21;0.30;99.90
1277;DHT22;631;51.024;13.826;2023-03-03T04:30:49;0.30;99.90
1277;DHT22;631;51.024;13.826;2023-03-03T04:33:15;0.20;99.90
1277;DHT22;631;51.024;13.826;2023-03-03T04:35:40;0.20;99.90
1277;DHT22;631;51.024;13.826;2023-03-03T04:38:06;0.20;99.90
1277;DHT22;631;51.024;13.826;2023-03-03T04:40:31;0.30;99.90
1277;DHT22;631;51.024;13.826;2023-03-03T04:42:57;0.20;99.90
1277;DHT22;631;51.024;13.826;2023-03-03T04:45:23;0.30;99.90
1277;DHT22;631;51.024;13.826;2023-03-03T04:47:48;0.30;99.90
1277;DHT22;631;51.024;13.826;2023-03-03T04:50:14;0.30;99.90
1277;DHT22;631;51.024;13.826;2023-03-03T04:52:39;0.30;99.90
1277;DHT22;631;51.024;13.826;2023-03-03T04:55:06;0.30;99.90
1277;DHT22;631;51.024;13.826;2023-03-03T04:57:31;0.30;99.90
1277;DHT22;631;51.024;13.826;2023-03-03T04:59:57;0.20;99.90
1277;DHT22;631;51.024;13.826;2023-03-03T05:02:22;0.30;99.90
1277;DHT22;631;51.024;13.826;2023-03-03T05:04:48;0.30;99.90
1277;DHT22;631;51.024;13.826;2023-03-03T05:07:14;0.30;99.90
1277;DHT22;631;51.024;13.826;2023-03-03T05:09:39;0.30;99.90
1277;DHT22;631;51.024;13.826;2023-03-03T05:12:05;0.30;99.90
1277;DHT22;631;51.024;13.826;2023-03-03T05:14:31;0.30;99.90
1277;DHT22;631;51.024;13.826;2023-03-03T05:16:57;0.30;99.90
1277;DHT22;631;51.024;13.826;2023-03-03T05:19:22;0.30;99.90
1277;DHT22;631;51.024;13.826;2023-03-03T05:21:48;0.30;99.90
1277;DHT22;631;51.024;13.826;2023-03-03T05:24:14;0.30;99.90
1277;DHT22;631;51.024;13.826;2023-03-03T05:26:40;0.30;99.90
1277;DHT22;631;51.024;13.826;2023-03-03T05:29:07;0.30;99.90
1277;DHT22;631;51.024;13.826;2023-03-03T05:31:33;0.40;99.90
1277;DHT22;631;51.024;13.826;2023-03-03T05:33:59;0.30;99.90
1277;DHT22;631;51.024;13.826;2023-03-03T05:36:24;0.40;99.90
1277;DHT22;631;51.024;13.826;2023-03-03T05:38:50;0.30;99.90
1277;DHT22;631;51.024;13.826;2023-03-03T05:41:16;0.30;99.90
1277;DHT22;631;51.024;13.826;2023-03-03T05:43:42;0.30;99.90
1277;DHT22;631;51.024;13.826;2023-03-03T05:46:09;0.30;99.90
1277;DHT22;631;51.024;13.826;2023-03-03T05:48:35;0.20;99.90
1277;DHT22;631;51.024;13.826;2023-03-03T05:51:01;0.30;99.90
1277;DHT22;631;51.024;13.826;2023-03-03T05:53:27;0.30;99.90
1277;DHT22;631;51.024;13.826;2023-03-03T05:55:53;0.30;99.90
1277;DHT22;631;51.024;13.826;2023-03-03T05:58:19;0.30;99.90
1277;DHT22;631;51.024;13.826;2023-03-03T06:00:45;0.40;99.90
1277;DHT22;631;51.024;13.826;2023-03-03T06:03:11;0.40;99.90
1277;DHT22;631;51.024;13.826;2023-03-03T06:05:36;0.40;99.90
1277;DHT22;631;51.024;13.826;2023-03-03T06:08:02;0.40;99.90
1277;DHT22;631;51.024;13.826;2023-03-03T06:10:28;0.30;99.90
1277;DHT22;631;51.024;13.826;2023-03-03T06:12:53;0.40;99.90
1277;DHT22;631;51.024;13.826;2023-03-03T06:15:20;0.30;99.90
1277;DHT22;631;51.024;13.826;2023-03-03T06:17:46;0.40;99.90
1277;DHT22;631;51.024;13.826;2023-03-03T06:20:12;0.40;99.90
1277;DHT22;631;51.024;13.826;2023-03-03T06:22:37;0.40;99.90
1277;DHT22;631;51.024;13.826;2023-03-03T06:25:03;0.50;99.90
1277;DHT22;631;51.024;13.826;2023-03-03T06:27:29;0.50;99.90
1277;DHT22;631;51.024;13.826;2023-03-03T06:29:55;0.50;99.90
1277;DHT22;631;51.024;13.826;2023-03-03T06:32:20;0.60;99.90
1277;DHT22;631;51.024;13.826;2023-03-03T06:34:46;0.60;99.90
1277;DHT22;631;51.024;13.826;2023-03-03T06:37:12;0.70;99.90
1277;DHT22;631;51.024;13.826;2023-03-03T06:39:37;0.70;99.90
1277;DHT22;631;51.024;13.826;2023-03-03T06:42:03;0.70;99.90
1277;DHT22;631;51.024;13.826;2023-03-03T06:44:29;0.70;99.90
1277;DHT22;631;51.024;13.826;2023-03-03T06:46:54;0.60;99.90
1277;DHT22;631;51.024;13.826;2023-03-03T06:49:22;0.50;99.90
1277;DHT22;631;51.024;13.826;2023-03-03T06:51:48;0.50;99.90
1277;DHT22;631;51.024;13.826;2023-03-03T06:54:15;0.60;99.90
1277;DHT22;631;51.024;13.826;2023-03-03T06:56:42;0.50;99.90
1277;DHT22;631;51.024;13.826;2023-03-03T06:59:17;0.50;99.90
1277;DHT22;631;51.024;13.826;2023-03-03T07:01:43;0.60;99.90
1277;DHT22;631;51.024;13.826;2023-03-03T07:04:31;0.60;99.90
1277;DHT22;631;51.024;13.826;2023-03-03T07:07:06;0.60;99.90
1277;DHT22;631;51.024;13.826;2023-03-03T07:09:32;0.70;99.90
1277;DHT22;631;51.024;13.826;2023-03-03T07:12:13;0.70;99.90
1277;DHT22;631;51.024;13.826;2023-03-03T07:14:42;0.60;99.90
1277;DHT22;631;51.024;13.826;2023-03-03T07:17:17;0.70;99.90
1277;DHT22;631;51.024;13.826;2023-03-03T07:19:44;0.70;99.90
1277;DHT22;631;51.024;13.826;2023-03-03T07:22:14;0.70;99.90
1277;DHT22;631;51.024;13.826;2023-03-03T07:24:43;0.70;99.90
1277;DHT22;631;51.024;13.826;2023-03-03T07:29:46;0.90;99.90
1277;DHT22;631;51.024;13.826;2023-03-03T07:34:48;1.00;99.90
1277;DHT22;631;51.024;13.826;2023-03-03T07:39:56;1.00;99.90
1277;DHT22;631;51.024;13.826;2023-03-03T07:44:54;1.00;99.90
1277;DHT22;631;51.024;13.826;2023-03-03T07:47:29;1.10;99.90
1277;DHT22;631;51.024;13.826;2023-03-03T07:49:57;1.10;99.90
1277;DHT22;631;51.024;13.826;2023-03-03T07:52:38;1.10;99.90
1277;DHT22;631;51.024;13.826;2023-03-03T07:55:33;1.10;99.90
1277;DHT22;631;51.024;13.826;2023-03-03T08:03:11;1.10;99.90
1277;DHT22;631;51.024;13.826;2023-03-03T08:05:41;1.20;99.90
1277;DHT22;631;51.024;13.826;2023-03-03T08:10:59;1.20;99.90
1277;DHT22;631;51.024;13.826;2023-03-03T08:13:37;1.20;99.90
1277;DHT22;631;51.024;13.826;2023-03-03T08:18:43;1.30;99.90
1277;DHT22;631;51.024;13.826;2023-03-03T08:21:24;1.30;99.90
1277;DHT22;631;51.024;13.826;2023-03-03T08:23:51;1.30;99.90
1277;DHT22;631;51.024;13.826;2023-03-03T08:26:18;1.40;99.90
1277;DHT22;631;51.024;13.826;2023-03-03T08:28:44;1.40;99.90
1277;DHT22;631;51.024;13.826;2023-03-03T08:31:10;1.50;99.90
1277;DHT22;631;51.024;13.826;2023-03-03T08:33:37;1.50;99.90
1277;DHT22;631;51.024;13.826;2023-03-03T08:36:04;1.60;99.90
1277;DHT22;631;51.024;13.826;2023-03-03T08:38:29;1.50;99.90
1277;DHT22;631;51.024;13.826;2023-03-03T08:40:55;1.50;99.90
1277;DHT22;631;51.024;13.826;2023-03-03T08:43:21;1.40;99.90
1277;DHT22;631;51.024;13.826;2023-03-03T08:45:52;1.40;99.90
1277;DHT22;631;51.024;13.826;2023-03-03T08:48:19;1.40;99.90
1277;DHT22;631;51.024;13.826;2023-03-03T08:50:45;1.50;99.90
1277;DHT22;631;51.024;13.826;2023-03-03T08:53:12;1.50;99.90
1277;DHT22;631;51.024;13.826;2023-03-03T08:55:39;1.60;99.90
1277;DHT22;631;51.024;13.826;2023-03-03T08:58:04;1.60;99.90
1277;DHT22;631;51.024;13.826;2023-03-03T09:00:30;1.60;99.90
1277;DHT22;631;51.024;13.826;2023-03-03T09:02:56;1.70;99.90
1277;DHT22;631;51.024;13.826;2023-03-03T09:05:22;1.70;99.90
1277;DHT22;631;51.024;13.826;2023-03-03T09:07:49;1.80;99.90
1277;DHT22;631;51.024;13.826;2023-03-03T09:10:18;1.80;99.90
1277;DHT22;631;51.024;13.826;2023-03-03T09:12:47;1.80;99.90
1277;DHT22;631;51.024;13.826;2023-03-03T09:17:44;1.80;99.90
1277;DHT22;631;51.024;13.826;2023-03-03T09:20:32;1.60;99.90
1277;DHT22;631;51.024;13.826;2023-03-03T09:23:15;1.70;99.90
1277;DHT22;631;51.024;13.826;2023-03-03T09:25:44;1.70;99.90
1277;DHT22;631;51.024;13.826;2023-03-03T09:28:28;1.70;99.90
1277;DHT22;631;51.024;13.826;2023-03-03T09:31:00;1.70;99.90
1277;DHT22;631;51.024;13.826;2023-03-03T09:33:46;1.60;99.90
1277;DHT22;631;51.024;13.826;2023-03-03T09:36:27;1.60;99.90
1277;DHT22;631;51.024;13.826;2023-03-03T09:38:53;1.60;99.90
1277;DHT22;631;51.024;13.826;2023-03-03T09:55:33;1.80;99.90
1277;DHT22;631;51.024;13.826;2023-03-03T10:00:37;1.80;99.90
1277;DHT22;631;51.024;13.826;2023-03-03T10:06:03;1.80;99.90
1277;DHT22;631;51.024;13.826;2023-03-03T10:09:09;1.80;99.90
1277;DHT22;631;51.024;13.826;2023-03-03T10:11:49;1.70;99.90
1277;DHT22;631;51.024;13.826;2023-03-03T10:17:21;1.70;99.90
1277;DHT22;631;51.024;13.826;2023-03-03T10:22:34;1.50;99.90
1277;DHT22;631;51.024;13.826;2023-03-03T10:28:03;1.70;99.90
1277;DHT22;631;51.024;13.826;2023-03-03T10:36:37;1.80;99.90
1277;DHT22;631;51.024;13.826;2023-03-03T10:49:59;1.90;99.90
1277;DHT22;631;51.024;13.826;2023-03-03T10:52:36;2.00;99.90
1277;DHT22;631;51.024;13.826;2023-03-03T11:00:44;2.00;99.90
1277;DHT22;631;51.024;13.826;2023-03-03T11:08:55;2.20;99.90
1277;DHT22;631;51.024;13.826;2023-03-03T11:14:05;2.10;99.90
1277;DHT22;631;51.024;13.826;2023-03-03T11:16:59;2.20;99.90
1277;DHT22;631;51.024;13.826;2023-03-03T11:28:08;2.40;99.90
1277;DHT22;631;51.024;13.826;2023-03-03T11:31:12;2.40;99.90
1277;DHT22;631;51.024;13.826;2023-03-03T11:33:53;2.50;99.90
1277;DHT22;631;51.024;13.826;2023-03-03T11:36:38;2.50;99.90
1277;DHT22;631;51.024;13.826;2023-03-03T11:39:11;2.50;99.90
1277;DHT22;631;51.024;13.826;2023-03-03T11:44:31;2.70;99.90
1277;DHT22;631;51.024;13.826;2023-03-03T11:47:00;2.60;99.90
1277;DHT22;631;51.024;13.826;2023-03-03T11:52:21;2.60;99.90
1277;DHT22;631;51.024;13.826;2023-03-03T11:54:58;2.60;99.90
1277;DHT22;631;51.024;13.826;2023-03-03T11:57:34;2.50;99.90
1277;DHT22;631;51.024;13.826;2023-03-03T12:06:09;2.40;99.90
1277;DHT22;631;51.024;13.826;2023-03-03T12:11:18;2.50;99.90
1277;DHT22;631;51.024;13.826;2023-03-03T12:20:37;2.70;99.90
1277;DHT22;631;51.024;13.826;2023-03-03T12:26:10;2.80;99.90
1277;DHT22;631;51.024;13.826;2023-03-03T12:28:34;2.60;99.90
1277;DHT22;631;51.024;13.826;2023-03-03T12:33:53;2.80;99.90
1277;DHT22;631;51.024;13.826;2023-03-03T12:39:11;2.80;99.90
1277;DHT22;631;51.024;13.826;2023-03-03T12:41:59;2.80;99.90
1277;DHT22;631;51.024;13.826;2023-03-03T12:44:45;2.90;99.90
1277;DHT22;631;51.024;13.826;2023-03-03T12:53:24;3.10;99.90
1277;DHT22;631;51.024;13.826;2023-03-03T12:56:04;3.20;99.90
1277;DHT22;631;51.024;13.826;2023-03-03T12:58:51;3.20;99.90
1277;DHT22;631;51.024;13.826;2023-03-03T13:01:43;3.20;99.90
1277;DHT22;631;51.024;13.826;2023-03-03T13:12:35;3.40;99.90
1277;DHT22;631;51.024;13.826;2023-03-03T13:20:59;3.40;99.90
1277;DHT22;631;51.024;13.826;2023-03-03T13:23:47;3.30;99.90
1277;DHT22;631;51.024;13.826;2023-03-03T13:29:29;3.10;99.90
1277;DHT22;631;51.024;13.826;2023-03-03T13:32:07;3.20;99.90
1277;DHT22;631;51.024;13.826;2023-03-03T13:35:06;3.20;99.90
1277;DHT22;631;51.024;13.826;2023-03-03T13:43:04;3.10;99.90
1277;DHT22;631;51.024;13.826;2023-03-03T13:49:00;3.10;99.90
1277;DHT22;631;51.024;13.826;2023-03-03T14:05:15;3.40;99.90
1277;DHT22;631;51.024;13.826;2023-03-03T14:07:51;3.30;99.90
1277;DHT22;631;51.024;13.826;2023-03-03T14:15:50;3.40;99.90
1277;DHT22;631;51.024;13.826;2023-03-03T14:18:33;3.40;99.90
1277;DHT22;631;51.024;13.826;2023-03-03T14:21:10;3.30;99.90
1277;DHT22;631;51.024;13.826;2023-03-03T14:23:52;3.40;99.90
1277;DHT22;631;51.024;13.826;2023-03-03T14:26:24;3.20;99.90
1277;DHT22;631;51.024;13.826;2023-03-03T14:31:37;3.30;99.90
1277;DHT22;631;51.024;13.826;2023-03-03T14:36:56;3.20;99.90
1277;DHT22;631;51.024;13.826;2023-03-03T14:39:34;3.30;99.90
1277;DHT22;631;51.024;13.826;2023-03-03T14:42:12;3.20;99.90
1277;DHT22;631;51.024;13.826;2023-03-03T14:49:38;3.20;99.90
1277;DHT22;631;51.024;13.826;2023-03-03T14:54:44;3.30;99.90
1277;DHT22;631;51.024;13.826;2023-03-03T14:57:37;3.40;99.90
1277;DHT22;631;51.024;13.826;2023-03-03T15:02:46;3.40;99.90
1277;DHT22;631;51.024;13.826;2023-03-03T15:05:29;3.30;99.90
1277;DHT22;631;51.024;13.826;2023-03-03T15:08:08;3.20;99.90
1277;DHT22;631;51.024;13.826;2023-03-03T15:18:23;3.20;99.90
1277;DHT22;631;51.024;13.826;2023-03-03T15:20:57;3.10;99.90
1277;DHT22;631;51.024;13.826;2023-03-03T15:26:22;3.20;99.90
1277;DHT22;631;51.024;13.826;2023-03-03T15:29:22;3.20;99.90
1277;DHT22;631;51.024;13.826;2023-03-03T15:34:39;2.90;99.90
1277;DHT22;631;51.024;13.826;2023-03-03T15:37:17;2.80;99.90
1277;DHT22;631;51.024;13.826;2023-03-03T15:40:01;2.80;99.90
1277;DHT22;631;51.024;13.826;2023-03-03T15:51:07;2.70;99.90
1277;DHT22;631;51.024;13.826;2023-03-03T16:04:35;2.40;99.90
1277;DHT22;631;51.024;13.826;2023-03-03T16:10:28;2.40;99.90
1277;DHT22;631;51.024;13.826;2023-03-03T16:13:16;2.30;99.90
1277;DHT22;631;51.024;13.826;2023-03-03T16:18:28;2.30;99.90
1277;DHT22;631;51.024;13.826;2023-03-03T16:26:17;2.40;99.90
1277;DHT22;631;51.024;13.826;2023-03-03T16:31:46;2.30;99.90
1277;DHT22;631;51.024;13.826;2023-03-03T16:37:06;2.30;99.90
1277;DHT22;631;51.024;13.826;2023-03-03T16:39:58;2.20;99.90
1277;DHT22;631;51.024;13.826;2023-03-03T16:42:30;2.20;99.90
1277;DHT22;631;51.024;13.826;2023-03-03T16:47:50;2.20;99.90
1277;DHT22;631;51.024;13.826;2023-03-03T16:50:26;2.10;99.90
1277;DHT22;631;51.024;13.826;2023-03-03T17:06:28;2.10;99.90
1277;DHT22;631;51.024;13.826;2023-03-03T17:19:48;2.00;99.90
1277;DHT22;631;51.024;13.826;2023-03-03T17:28:42;1.80;99.90
1277;DHT22;631;51.024;13.826;2023-03-03T17:31:24;1.90;99.90
1277;DHT22;631;51.024;13.826;2023-03-03T18:19:58;1.80;99.90
1277;DHT22;631;51.024;13.826;2023-03-03T18:22:42;1.70;99.90
1277;DHT22;631;51.024;13.826;2023-03-03T18:25:14;1.70;99.90
1277;DHT22;631;51.024;13.826;2023-03-03T18:27:41;1.60;99.90
1277;DHT22;631;51.024;13.826;2023-03-03T18:35:45;1.70;99.90
1277;DHT22;631;51.024;13.826;2023-03-03T18:41:02;1.60;99.90
1277;DHT22;631;51.024;13.826;2023-03-03T18:49:01;1.70;99.90
1277;DHT22;631;51.024;13.826;2023-03-03T18:54:23;1.60;99.90
1277;DHT22;631;51.024;13.826;2023-03-03T19:04:54;1.70;99.90
1277;DHT22;631;51.024;13.826;2023-03-03T19:07:28;1.70;99.90
1277;DHT22;631;51.024;13.826;2023-03-03T19:10:00;1.80;99.90
1277;DHT22;631;51.024;13.826;2023-03-03T19:12:47;1.70;99.90
1277;DHT22;631;51.024;13.826;2023-03-03T19:20:37;1.80;99.90
1277;DHT22;631;51.024;13.826;2023-03-03T19:23:14;1.80;99.90
1277;DHT22;631;51.024;13.826;2023-03-03T19:25:40;1.70;99.90
1277;DHT22;631;51.024;13.826;2023-03-03T19:30:53;1.80;99.90
1277;DHT22;631;51.024;13.826;2023-03-03T19:36:02;1.80;99.90
1277;DHT22;631;51.024;13.826;2023-03-03T19:38:53;1.80;99.90
1277;DHT22;631;51.024;13.826;2023-03-03T19:44:26;1.80;99.90
1277;DHT22;631;51.024;13.826;2023-03-03T19:47:03;1.90;99.90
1277;DHT22;631;51.024;13.826;2023-03-03T19:49:42;1.90;99.90
1277;DHT22;631;51.024;13.826;2023-03-03T20:05:50;1.90;99.90
1277;DHT22;631;51.024;13.826;2023-03-03T20:08:34;2.00;99.90
1277;DHT22;631;51.024;13.826;2023-03-03T20:11:33;2.00;99.90
1277;DHT22;631;51.024;13.826;2023-03-03T20:16:45;1.90;99.90
1277;DHT22;631;51.024;13.826;2023-03-03T20:22:40;2.10;99.90
1277;DHT22;631;51.024;13.826;2023-03-03T20:25:28;2.00;99.90
1277;DHT22;631;51.024;13.826;2023-03-03T20:36:34;2.10;99.90
1277;DHT22;631;51.024;13.826;2023-03-03T20:39:14;2.00;99.90
1277;DHT22;631;51.024;13.826;2023-03-03T20:56:01;2.00;99.90
1277;DHT22;631;51.024;13.826;2023-03-03T20:58:33;2.10;99.90
1277;DHT22;631;51.024;13.826;2023-03-03T21:01:14;2.10;99.90
1277;DHT22;631;51.024;13.826;2023-03-03T21:03:43;2.10;99.90
1277;DHT22;631;51.024;13.826;2023-03-03T21:06:15;2.10;99.90
1277;DHT22;631;51.024;13.826;2023-03-03T21:11:16;2.10;99.90
1277;DHT22;631;51.024;13.826;2023-03-03T21:13:48;2.10;99.90
1277;DHT22;631;51.024;13.826;2023-03-03T21:21:21;2.20;99.90
1277;DHT22;631;51.024;13.826;2023-03-03T21:23:46;2.30;99.90
1277;DHT22;631;51.024;13.826;2023-03-03T21:26:12;2.30;99.90
1277;DHT22;631;51.024;13.826;2023-03-03T21:28:37;2.20;99.90
1277;DHT22;631;51.024;13.826;2023-03-03T21:33:47;2.10;99.90
1277;DHT22;631;51.024;13.826;2023-03-03T21:36:18;2.10;99.90
1277;DHT22;631;51.024;13.826;2023-03-03T21:38:45;2.30;99.90
1277;DHT22;631;51.024;13.826;2023-03-03T21:41:12;2.30;99.90
1277;DHT22;631;51.024;13.826;2023-03-03T21:43:47;2.30;99.90
1277;DHT22;631;51.024;13.826;2023-03-03T21:46:17;2.40;99.90
1277;DHT22;631;51.024;13.826;2023-03-03T21:48:43;2.30;99.90
1277;DHT22;631;51.024;13.826;2023-03-03T21:51:09;2.40;99.90
1277;DHT22;631;51.024;13.826;2023-03-03T21:53:36;2.50;99.90
1277;DHT22;631;51.024;13.826;2023-03-03T21:56:01;2.50;99.90
1277;DHT22;631;51.024;13.826;2023-03-03T21:58:27;2.50;99.90
1277;DHT22;631;51.024;13.826;2023-03-03T22:00:53;2.40;99.90
1277;DHT22;631;51.024;13.826;2023-03-03T22:03:18;2.50;99.90
1277;DHT22;631;51.024;13.826;2023-03-03T22:05:46;2.50;99.90
1277;DHT22;631;51.024;13.826;2023-03-03T22:08:15;2.50;99.90
1277;DHT22;631;51.024;13.826;2023-03-03T22:10:47;2.50;99.90
1277;DHT22;631;51.024;13.826;2023-03-03T22:13:16;2.40;99.90
1277;DHT22;631;51.024;13.826;2023-03-03T22:15:45;2.50;99.90
1277;DHT22;631;51.024;13.826;2023-03-03T22:18:10;2.50;99.90
1277;DHT22;631;51.024;13.826;2023-03-03T22:20:36;2.40;99.90
1277;DHT22;631;51.024;13.826;2023-03-03T22:23:01;2.40;99.90
1277;DHT22;631;51.024;13.826;2023-03-03T22:25:27;2.40;99.90
1277;DHT22;631;51.024;13.826;2023-03-03T22:27:52;2.40;99.90
1277;DHT22;631;51.024;13.826;2023-03-03T22:30:18;2.30;99.90
1277;DHT22;631;51.024;13.826;2023-03-03T22:32:44;2.40;99.90
1277;DHT22;631;51.024;13.826;2023-03-03T22:35:09;2.40;99.90
1277;DHT22;631;51.024;13.826;2023-03-03T22:37:35;2.30;99.90
1277;DHT22;631;51.024;13.826;2023-03-03T22:40:01;2.40;99.90
1277;DHT22;631;51.024;13.826;2023-03-03T22:42:26;2.30;99.90
1277;DHT22;631;51.024;13.826;2023-03-03T22:44:52;2.30;99.90
1277;DHT22;631;51.024;13.826;2023-03-03T22:47:17;2.30;99.90
1277;DHT22;631;51.024;13.826;2023-03-03T22:49:43;2.30;99.90
1277;DHT22;631;51.024;13.826;2023-03-03T22:52:09;2.40;99.90
1277;DHT22;631;51.024;13.826;2023-03-03T22:54:34;2.40;99.90
1277;DHT22;631;51.024;13.826;2023-03-03T22:57:00;2.30;99.90
1277;DHT22;631;51.024;13.826;2023-03-03T22:59:25;2.30;99.90
1277;DHT22;631;51.024;13.826;2023-03-03T23:01:51;2.40;99.90
1277;DHT22;631;51.024;13.826;2023-03-03T23:04:16;2.40;99.90
1277;DHT22;631;51.024;13.826;2023-03-03T23:06:42;2.50;99.90
1277;DHT22;631;51.024;13.826;2023-03-03T23:09:09;2.40;99.90
1277;DHT22;631;51.024;13.826;2023-03-03T23:11:34;2.40;99.90
1277;DHT22;631;51.024;13.826;2023-03-03T23:14:00;2.40;99.90
1277;DHT22;631;51.024;13.826;2023-03-03T23:16:26;2.40;99.90
1277;DHT22;631;51.024;13.826;2023-03-03T23:18:51;2.40;99.90
1277;DHT22;631;51.024;13.826;2023-03-03T23:21:17;2.40;99.90
1277;DHT22;631;51.024;13.826;2023-03-03T23:23:42;2.40;99.90
1277;DHT22;631;51.024;13.826;2023-03-03T23:26:08;2.50;99.90
1277;DHT22;631;51.024;13.826;2023-03-03T23:28:34;2.50;99.90
1277;DHT22;631;51.024;13.826;2023-03-03T23:30:59;2.60;99.90
1277;DHT22;631;51.024;13.826;2023-03-03T23:33:25;2.50;99.90
1277;DHT22;631;51.024;13.826;2023-03-03T23:35:50;2.40;99.90
1277;DHT22;631;51.024;13.826;2023-03-03T23:38:17;2.40;99.90
1277;DHT22;631;51.024;13.826;2023-03-03T23:40:43;2.40;99.90
1277;DHT22;631;51.024;13.826;2023-03-03T23:43:11;2.40;99.90
1277;DHT22;631;51.024;13.826;2023-03-03T23:45:36;2.50;99.90